createdAt,value
2018-10-02T00:02:05.651Z,76.38
2018-10-02T00:04:35.584Z,76.82
2018-10-02T00:07:05.244Z,77.32
2018-10-02T00:09:34.906Z,77.24
2018-10-02T00:12:09.780Z,77.10
2018-10-02T00:14:39.436Z,76.86
2018-10-02T00:17:09.079Z,76.73
2018-10-02T00:19:38.770Z,77.01
2018-10-02T00:22:08.399Z,76.76
2018-10-02T00:24:38.091Z,76.58
2018-10-02T00:27:07.981Z,76.35
2018-10-02T00:29:37.731Z,77.00
2018-10-02T00:32:07.438Z,76.42
2018-10-02T00:34:37.136Z,77.06
2018-10-02T00:37:06.786Z,77.26
2018-10-02T00:39:36.447Z,76.37
2018-10-02T00:42:06.116Z,76.42
2018-10-02T00:44:35.749Z,76.60
2018-10-02T00:47:05.455Z,76.54
2018-10-02T00:49:35.097Z,76.85
2018-10-02T00:52:04.845Z,77.05
2018-10-02T00:54:34.524Z,76.26
2018-10-02T00:57:04.204Z,76.74
2018-10-02T00:59:33.947Z,77.01
2018-10-02T01:02:03.669Z,76.92
2018-10-02T01:04:33.315Z,76.77
2018-10-02T01:07:02.998Z,77.47
2018-10-02T01:09:32.645Z,76.56
2018-10-02T01:12:02.321Z,76.72
2018-10-02T01:14:31.984Z,76.66
2018-10-02T01:17:01.648Z,76.76
2018-10-02T01:19:31.323Z,77.59
2018-10-02T01:22:00.991Z,77.52
2018-10-02T01:24:30.640Z,77.40
2018-10-02T01:27:00.458Z,76.74
2018-10-02T01:29:30.109Z,77.58
2018-10-02T01:31:59.788Z,77.23
2018-10-02T01:34:29.474Z,76.93
2018-10-02T01:36:59.155Z,77.47
2018-10-02T01:39:28.801Z,77.08
2018-10-02T01:41:58.499Z,77.17
2018-10-02T01:44:28.173Z,76.88
2018-10-02T01:46:57.848Z,76.91
2018-10-02T01:49:27.506Z,76.96
2018-10-02T01:51:57.169Z,77.13
2018-10-02T01:54:26.830Z,77.04
2018-10-02T01:56:56.508Z,77.76
2018-10-02T01:59:26.271Z,77.15
2018-10-02T02:01:56.024Z,76.88
2018-10-02T02:04:25.751Z,76.94
2018-10-02T02:06:55.484Z,77.00
2018-10-02T02:09:25.150Z,77.18
2018-10-02T02:11:54.903Z,76.95
2018-10-02T02:14:24.542Z,77.22
2018-10-02T02:16:54.208Z,77.04
2018-10-02T02:19:23.872Z,77.41
2018-10-02T02:21:53.560Z,77.44
2018-10-02T02:24:23.212Z,77.88
2018-10-02T02:26:52.896Z,77.17
2018-10-02T02:29:22.557Z,78.13
2018-10-02T02:31:52.256Z,77.86
2018-10-02T02:34:21.904Z,78.82
2018-10-02T02:36:51.564Z,78.20
2018-10-02T02:39:21.225Z,78.44
2018-10-02T02:41:50.916Z,78.02
2018-10-02T02:44:20.575Z,78.42
2018-10-02T02:46:50.265Z,77.89
2018-10-02T02:49:25.020Z,78.13
2018-10-02T02:51:54.732Z,78.45
2018-10-02T02:54:24.415Z,77.90
2018-10-02T02:56:54.096Z,77.67
2018-10-02T02:59:23.882Z,77.64
2018-10-02T03:01:53.591Z,76.77
2018-10-02T03:04:23.359Z,77.82
2018-10-02T03:06:53.028Z,77.43
2018-10-02T03:09:22.675Z,77.42
2018-10-02T03:11:52.333Z,77.39
2018-10-02T03:14:21.995Z,77.57
2018-10-02T03:16:51.691Z,77.50
2018-10-02T03:19:21.346Z,77.62
2018-10-02T03:21:51.087Z,77.36
2018-10-02T03:24:20.717Z,78.55
2018-10-02T03:26:50.395Z,77.67
2018-10-02T03:29:20.048Z,78.21
2018-10-02T03:31:49.745Z,77.62
2018-10-02T03:34:19.407Z,78.42
2018-10-02T03:36:49.157Z,77.70
2018-10-02T03:39:18.844Z,77.93
2018-10-02T03:41:48.523Z,77.99
2018-10-02T03:44:18.189Z,78.17
2018-10-02T03:46:47.874Z,77.80
2018-10-02T03:49:17.529Z,78.21
2018-10-02T03:51:47.219Z,77.33
2018-10-02T03:54:16.893Z,77.36
2018-10-02T03:56:46.569Z,77.24
2018-10-02T03:59:16.220Z,77.83
2018-10-02T04:01:45.915Z,78.36
2018-10-02T04:04:15.556Z,77.66
2018-10-02T04:06:45.240Z,77.49
2018-10-02T04:09:14.890Z,78.11
2018-10-02T04:11:44.568Z,78.02
2018-10-02T04:14:14.224Z,77.92
2018-10-02T04:16:43.912Z,78.91
2018-10-02T04:19:13.569Z,78.58
2018-10-02T04:21:43.259Z,78.00
2018-10-02T04:24:12.941Z,79.00
2018-10-02T04:26:42.628Z,79.04
2018-10-02T04:29:12.288Z,78.92
2018-10-02T04:31:41.960Z,78.63
2018-10-02T04:34:11.653Z,78.66
2018-10-02T04:36:41.374Z,79.26
2018-10-02T04:39:11.050Z,78.95
2018-10-02T04:41:40.899Z,78.85
2018-10-02T04:44:10.575Z,78.81
2018-10-02T04:46:40.345Z,79.03
2018-10-02T04:49:09.984Z,78.96
2018-10-02T04:51:39.646Z,78.93
2018-10-02T04:54:09.348Z,78.81
2018-10-02T04:56:38.995Z,78.23
2018-10-02T04:59:08.776Z,78.54
2018-10-02T05:01:38.419Z,78.23
2018-10-02T05:04:08.127Z,78.40
2018-10-02T05:06:37.904Z,78.57
2018-10-02T05:09:09.007Z,78.06
2018-10-02T05:11:38.678Z,78.09
2018-10-02T05:14:08.551Z,78.22
2018-10-02T05:16:38.248Z,78.76
2018-10-02T05:19:07.974Z,77.56
2018-10-02T05:21:37.645Z,78.60
2018-10-02T05:24:07.328Z,78.39
2018-10-02T05:26:37.070Z,78.26
2018-10-02T05:29:06.773Z,78.25
2018-10-02T05:31:36.436Z,78.32
2018-10-02T05:34:06.353Z,78.37
2018-10-02T05:36:36.049Z,78.27
2018-10-02T05:39:07.816Z,78.64
2018-10-02T05:41:37.471Z,78.14
2018-10-02T05:44:07.184Z,78.64
2018-10-02T05:46:36.877Z,78.64
2018-10-02T05:49:06.593Z,78.69
2018-10-02T05:51:36.237Z,79.20
2018-10-02T05:54:05.952Z,79.00
2018-10-02T05:56:35.612Z,78.41
2018-10-02T05:59:05.368Z,78.81
2018-10-02T06:01:35.116Z,78.54
2018-10-02T06:04:04.794Z,79.34
2018-10-02T06:06:34.482Z,78.97
2018-10-02T06:09:05.889Z,78.87
2018-10-02T06:11:35.617Z,79.03
2018-10-02T06:14:05.352Z,79.42
2018-10-02T06:16:35.028Z,78.12
2018-10-02T06:19:04.765Z,78.72
2018-10-02T06:21:34.449Z,78.73
2018-10-02T06:24:04.180Z,78.50
2018-10-02T06:26:33.835Z,78.91
2018-10-02T06:29:03.520Z,78.62
2018-10-02T06:31:33.209Z,77.93
2018-10-02T06:34:02.880Z,79.05
2018-10-02T06:36:32.562Z,79.51
2018-10-02T06:39:02.338Z,79.71
2018-10-02T06:41:31.984Z,79.71
2018-10-02T06:44:01.696Z,79.55
2018-10-02T06:46:31.364Z,80.73
2018-10-02T06:49:01.071Z,80.42
2018-10-02T06:51:30.799Z,81.43
2018-10-02T06:54:00.513Z,81.21
2018-10-02T06:56:30.219Z,82.07
2018-10-02T06:58:59.945Z,82.50
2018-10-02T07:01:29.594Z,82.32
2018-10-02T07:03:59.300Z,81.10
2018-10-02T07:06:28.969Z,81.52
2018-10-02T07:08:58.746Z,81.58
2018-10-02T07:11:28.649Z,81.21
2018-10-02T07:13:58.376Z,81.04
2018-10-02T07:16:28.052Z,82.24
2018-10-02T07:18:57.790Z,81.89
2018-10-02T07:21:27.476Z,81.48
2018-10-02T07:23:57.195Z,81.98
2018-10-02T07:26:26.916Z,82.66
2018-10-02T07:28:56.576Z,81.82
2018-10-02T07:31:26.256Z,81.10
2018-10-02T07:33:55.977Z,82.03
2018-10-02T07:36:25.631Z,82.01
2018-10-02T07:38:55.422Z,81.96
2018-10-02T07:41:25.098Z,81.25
2018-10-02T07:43:54.810Z,83.25
2018-10-02T07:46:24.468Z,82.50
2018-10-02T07:48:54.167Z,83.42
2018-10-02T07:51:23.821Z,82.70
2018-10-02T07:53:53.594Z,83.19
2018-10-02T07:56:23.301Z,82.68
2018-10-02T07:58:52.980Z,82.44
2018-10-02T08:01:22.641Z,82.95
2018-10-02T08:03:52.352Z,80.73
2018-10-02T08:06:22.000Z,82.92
2018-10-02T08:08:51.693Z,82.26
2018-10-02T08:11:21.432Z,82.92
2018-10-02T08:13:51.107Z,83.04
2018-10-02T08:16:20.816Z,81.93
2018-10-02T08:18:50.501Z,82.80
2018-10-02T08:21:20.168Z,81.98
2018-10-02T08:23:49.838Z,81.90
2018-10-02T08:26:19.556Z,81.90
2018-10-02T08:28:49.253Z,81.80
2018-10-02T08:31:18.922Z,82.33
2018-10-02T08:33:48.641Z,82.18
2018-10-02T08:36:18.340Z,82.97
2018-10-02T08:38:48.650Z,82.61
2018-10-02T08:41:18.349Z,82.88
2018-10-02T08:43:48.138Z,82.92
2018-10-02T08:46:17.764Z,82.66
2018-10-02T08:48:47.516Z,82.34
2018-10-02T08:51:17.230Z,82.55
2018-10-02T08:53:46.970Z,82.34
2018-10-02T08:56:16.616Z,82.88
2018-10-02T08:58:46.309Z,81.66
2018-10-02T09:01:15.949Z,82.17
2018-10-02T09:03:45.589Z,81.97
2018-10-02T09:06:15.311Z,81.74
2018-10-02T09:08:44.961Z,82.13
2018-10-02T09:11:14.623Z,82.11
2018-10-02T09:13:44.324Z,83.33
2018-10-02T09:16:14.041Z,83.03
2018-10-02T09:18:43.724Z,81.80
2018-10-02T09:21:13.531Z,81.70
2018-10-02T09:23:43.210Z,82.62
2018-10-02T09:26:13.198Z,82.92
2018-10-02T09:28:42.949Z,82.98
2018-10-02T09:31:17.611Z,82.34
2018-10-02T09:33:52.339Z,82.74
2018-10-02T09:36:27.118Z,82.65
2018-10-02T09:39:01.925Z,83.60
2018-10-02T09:41:36.844Z,83.22
2018-10-02T09:44:06.610Z,84.57
2018-10-02T09:46:36.344Z,84.52
2018-10-02T09:49:06.085Z,84.54
2018-10-02T09:51:35.991Z,84.12
2018-10-02T09:54:05.725Z,84.02
2018-10-02T09:56:40.642Z,83.63
2018-10-02T09:59:10.980Z,83.69
2018-10-02T10:01:45.677Z,84.00
2018-10-02T10:04:16.074Z,84.45
2018-10-02T10:06:45.763Z,84.14
2018-10-02T10:09:15.408Z,83.83
2018-10-02T10:11:45.110Z,85.00
2018-10-02T10:14:14.774Z,84.11
2018-10-02T10:16:44.522Z,84.94
2018-10-02T10:19:14.485Z,84.82
2018-10-02T10:21:44.122Z,84.56
2018-10-02T10:24:13.821Z,84.12
2018-10-02T10:26:43.615Z,84.67
2018-10-02T10:29:13.213Z,83.92
2018-10-02T10:31:42.935Z,84.04
2018-10-02T10:34:12.668Z,84.56
2018-10-02T10:36:42.326Z,84.26
2018-10-02T10:39:12.276Z,84.58
2018-10-02T10:41:41.924Z,84.55
2018-10-02T10:44:11.591Z,84.63
2018-10-02T10:46:41.388Z,84.00
2018-10-02T10:49:11.001Z,84.12
2018-10-02T10:51:40.784Z,84.53
2018-10-02T10:54:10.444Z,83.66
2018-10-02T10:56:40.138Z,84.42
2018-10-02T10:59:09.789Z,84.41
2018-10-02T11:01:39.481Z,85.31
2018-10-02T11:04:09.143Z,84.02
2018-10-02T11:06:38.856Z,84.95
2018-10-02T11:09:10.592Z,84.38
2018-10-02T11:11:40.272Z,85.20
2018-10-02T11:14:09.957Z,84.41
2018-10-02T11:16:39.637Z,84.40
2018-10-02T11:19:09.292Z,84.40
2018-10-02T11:21:38.986Z,84.59
2018-10-02T11:24:08.662Z,84.01
2018-10-02T11:26:38.358Z,84.12
2018-10-02T11:29:08.017Z,84.86
2018-10-02T11:31:37.685Z,84.81
2018-10-02T11:34:07.364Z,84.84
2018-10-02T11:36:37.049Z,84.84
2018-10-02T11:39:07.564Z,85.39
2018-10-02T11:41:37.398Z,84.30
2018-10-02T11:44:07.139Z,85.41
2018-10-02T11:46:36.841Z,85.39
2018-10-02T11:49:06.595Z,84.53
2018-10-02T11:51:36.272Z,85.25
2018-10-02T11:54:05.998Z,85.48
2018-10-02T11:56:35.704Z,84.22
2018-10-02T11:59:05.465Z,84.76
2018-10-02T12:01:35.236Z,84.16
2018-10-02T12:04:04.941Z,84.51
2018-10-02T12:06:34.633Z,84.82
2018-10-02T12:09:05.698Z,85.25
2018-10-02T12:11:35.360Z,85.31
2018-10-02T12:14:05.172Z,84.57
2018-10-02T12:16:34.732Z,84.80
2018-10-02T12:19:04.404Z,84.82
2018-10-02T12:21:34.930Z,84.24
2018-10-02T12:24:04.632Z,83.97
2018-10-02T12:26:34.517Z,83.25
2018-10-02T12:29:04.232Z,82.97
2018-10-02T12:31:33.904Z,83.41
2018-10-02T12:34:03.628Z,83.75
2018-10-02T12:36:33.257Z,82.90
2018-10-02T12:39:03.185Z,83.72
2018-10-02T12:41:32.855Z,84.13
2018-10-02T12:44:02.521Z,82.89
2018-10-02T12:46:32.196Z,83.20
2018-10-02T12:49:01.943Z,82.73
2018-10-02T12:51:31.624Z,82.59
2018-10-02T12:54:01.513Z,82.84
2018-10-02T12:56:31.221Z,83.46
2018-10-02T12:59:07.457Z,83.75
2018-10-02T13:01:37.147Z,83.91
2018-10-02T13:04:06.880Z,84.00
2018-10-02T13:06:36.600Z,83.86
2018-10-02T13:09:08.628Z,84.11
2018-10-02T13:11:38.468Z,84.21
2018-10-02T13:14:08.173Z,84.66
2018-10-02T13:16:37.874Z,83.45
2018-10-02T13:19:07.766Z,83.52
2018-10-02T13:21:37.412Z,83.28
2018-10-02T13:24:07.108Z,84.54
2018-10-02T13:26:36.777Z,84.37
2018-10-02T13:29:06.553Z,83.57
2018-10-02T13:31:36.245Z,84.15
2018-10-02T13:34:05.918Z,83.64
2018-10-02T13:36:35.712Z,85.20
2018-10-02T13:39:07.180Z,84.67
2018-10-02T13:41:37.133Z,84.49
2018-10-02T13:44:06.852Z,85.08
2018-10-02T13:46:36.808Z,85.62
2018-10-02T13:49:06.484Z,85.98
2018-10-02T13:51:36.161Z,86.07
2018-10-02T13:54:05.844Z,86.13
2018-10-02T13:56:35.533Z,85.45
2018-10-02T13:59:05.270Z,85.48
2018-10-02T14:01:34.915Z,85.78
2018-10-02T14:04:04.595Z,84.99
2018-10-02T14:06:34.276Z,85.54
2018-10-02T14:09:05.716Z,85.91
2018-10-02T14:11:35.423Z,85.22
2018-10-02T14:14:05.180Z,86.23
2018-10-02T14:16:34.853Z,86.39
2018-10-02T14:19:04.885Z,86.79
2018-10-02T14:21:34.534Z,86.58
2018-10-02T14:24:04.224Z,87.24
2018-10-02T14:26:33.932Z,87.53
2018-10-02T14:29:03.621Z,87.82
2018-10-02T14:31:33.310Z,88.19
2018-10-02T14:34:03.005Z,88.38
2018-10-02T14:36:32.700Z,88.12
2018-10-02T14:39:02.468Z,88.65
2018-10-02T14:41:32.113Z,87.88
2018-10-02T14:44:01.757Z,88.07
2018-10-02T14:46:31.476Z,87.79
2018-10-02T14:49:01.120Z,87.67
2018-10-02T14:51:30.789Z,87.78
2018-10-02T14:54:00.928Z,87.69
2018-10-02T14:56:30.780Z,87.63
2018-10-02T14:59:00.525Z,88.06
2018-10-02T15:01:30.210Z,88.50
2018-10-02T15:03:59.861Z,88.85
2018-10-02T15:06:29.578Z,88.09
2018-10-02T15:08:59.225Z,88.17
2018-10-02T15:11:28.861Z,87.46
2018-10-02T15:13:58.566Z,88.01
2018-10-02T15:16:28.200Z,88.75
2018-10-02T15:18:57.844Z,88.20
2018-10-02T15:21:27.602Z,88.56
2018-10-02T15:23:57.273Z,87.88
2018-10-02T15:26:26.934Z,88.71
2018-10-02T15:28:56.700Z,88.54
2018-10-02T15:31:26.375Z,88.39
2018-10-02T15:33:56.108Z,89.02
2018-10-02T15:36:25.760Z,88.27
2018-10-02T15:38:55.424Z,87.88
2018-10-02T15:41:25.132Z,88.04
2018-10-02T15:43:54.784Z,87.93
2018-10-02T15:46:24.425Z,87.25
2018-10-02T15:48:54.140Z,88.50
2018-10-02T15:51:23.815Z,88.31
2018-10-02T15:53:53.463Z,87.78
2018-10-02T15:56:23.154Z,88.05
2018-10-02T15:58:52.828Z,87.28
2018-10-02T16:01:22.505Z,88.45
2018-10-02T16:03:52.272Z,88.20
2018-10-02T16:06:21.943Z,88.84
2018-10-02T16:08:51.602Z,87.89
2018-10-02T16:11:21.346Z,87.90
2018-10-02T16:13:51.022Z,88.67
2018-10-02T16:16:21.572Z,88.67
2018-10-02T16:18:51.240Z,88.66
2018-10-02T16:21:20.884Z,88.50
2018-10-02T16:23:50.557Z,88.68
2018-10-02T16:26:20.220Z,88.39
2018-10-02T16:28:49.908Z,87.97
2018-10-02T16:31:19.563Z,88.75
2018-10-02T16:33:49.260Z,89.69
2018-10-02T16:36:18.903Z,89.14
2018-10-02T16:38:48.597Z,89.56
2018-10-02T16:41:18.260Z,89.03
2018-10-02T16:43:47.907Z,89.09
2018-10-02T16:46:17.604Z,88.58
2018-10-02T16:48:47.291Z,88.79
2018-10-02T16:51:16.952Z,88.30
2018-10-02T16:53:46.668Z,87.95
2018-10-02T16:56:16.335Z,87.02
2018-10-02T16:58:46.100Z,87.47
2018-10-02T17:01:15.784Z,87.50
2018-10-02T17:03:45.442Z,86.95
2018-10-02T17:06:15.153Z,87.37
2018-10-02T17:08:44.837Z,86.87
2018-10-02T17:11:14.660Z,87.42
2018-10-02T17:13:44.372Z,86.39
2018-10-02T17:16:14.071Z,85.46
2018-10-02T17:18:43.731Z,86.87
2018-10-02T17:21:13.432Z,86.94
2018-10-02T17:23:43.692Z,85.93
2018-10-02T17:26:13.429Z,86.28
2018-10-02T17:28:43.142Z,85.99
2018-10-02T17:31:12.913Z,85.93
2018-10-02T17:33:42.888Z,86.18
2018-10-02T17:36:12.589Z,86.25
2018-10-02T17:38:42.296Z,86.69
2018-10-02T17:41:12.020Z,86.30
2018-10-02T17:43:41.699Z,86.30
2018-10-02T17:46:11.404Z,86.24
2018-10-02T17:48:41.149Z,85.97
2018-10-02T17:51:10.897Z,86.88
2018-10-02T17:53:40.635Z,87.34
2018-10-02T17:56:10.369Z,86.30
2018-10-02T17:58:40.097Z,87.36
2018-10-02T18:01:09.798Z,86.81
2018-10-02T18:03:39.452Z,87.37
2018-10-02T18:06:09.194Z,88.26
2018-10-02T18:08:39.125Z,87.55
2018-10-02T18:11:08.825Z,88.14
2018-10-02T18:13:38.580Z,86.85
2018-10-02T18:16:08.641Z,88.29
2018-10-02T18:18:38.369Z,86.99
2018-10-02T18:21:08.177Z,87.80
2018-10-02T18:23:37.841Z,87.04
2018-10-02T18:26:07.580Z,87.19
2018-10-02T18:28:37.276Z,87.26
2018-10-02T18:31:06.924Z,87.00
2018-10-02T18:33:36.617Z,86.19
2018-10-02T18:36:06.296Z,86.49
2018-10-02T18:38:36.290Z,86.12
2018-10-02T18:41:06.017Z,85.67
2018-10-02T18:43:35.701Z,85.67
2018-10-02T18:46:05.431Z,86.19
2018-10-02T18:48:35.096Z,85.61
2018-10-02T18:51:04.772Z,85.99
2018-10-02T18:53:34.626Z,86.59
2018-10-02T18:56:04.541Z,85.50
2018-10-02T18:58:34.221Z,85.82
2018-10-02T19:01:03.868Z,84.78
2018-10-02T19:03:33.544Z,85.29
2018-10-02T19:06:03.333Z,85.65
2018-10-02T19:08:38.092Z,85.69
2018-10-02T19:11:12.949Z,85.04
2018-10-02T19:13:42.627Z,85.04
2018-10-02T19:16:17.519Z,85.55
2018-10-02T19:18:47.226Z,86.03
2018-10-02T19:21:16.910Z,85.57
2018-10-02T19:23:46.633Z,85.67
2018-10-02T19:26:20.745Z,85.33
2018-10-02T19:28:50.724Z,85.94
2018-10-02T19:31:32.096Z,86.52
2018-10-02T19:34:02.080Z,86.10
2018-10-02T19:36:31.729Z,86.15
2018-10-02T19:39:06.741Z,86.84
2018-10-02T19:41:36.396Z,85.77
2018-10-02T19:44:06.120Z,85.37
2018-10-02T19:46:41.120Z,85.29
2018-10-02T19:49:10.833Z,85.64
2018-10-02T19:51:45.654Z,85.50
2018-10-02T19:54:15.395Z,84.52
2018-10-02T19:56:45.037Z,85.41
2018-10-02T19:59:14.745Z,83.34
2018-10-02T20:01:44.452Z,83.12
2018-10-02T20:04:14.135Z,82.84
2018-10-02T20:06:43.853Z,82.40
2018-10-02T20:09:13.614Z,83.11
2018-10-02T20:11:43.300Z,82.90
2018-10-02T20:14:13.200Z,83.54
2018-10-02T20:16:42.881Z,83.62
2018-10-02T20:19:12.569Z,83.59
2018-10-02T20:21:42.278Z,82.69
2018-10-02T20:24:11.953Z,83.49
2018-10-02T20:26:41.637Z,83.73
2018-10-02T20:29:11.316Z,82.98
2018-10-02T20:31:43.023Z,83.46
2018-10-02T20:34:12.786Z,83.37
2018-10-02T20:36:42.538Z,82.11
2018-10-02T20:39:12.885Z,83.03
2018-10-02T20:41:42.572Z,81.97
2018-10-02T20:44:12.240Z,82.24
2018-10-02T20:46:41.955Z,81.88
2018-10-02T20:49:11.807Z,81.22
2018-10-02T20:51:41.418Z,81.81
2018-10-02T20:54:11.100Z,81.37
2018-10-02T20:56:40.806Z,81.95
2018-10-02T20:59:10.476Z,81.14
2018-10-02T21:01:40.180Z,81.77
2018-10-02T21:04:09.848Z,80.97
2018-10-02T21:06:39.545Z,80.00
2018-10-02T21:09:09.216Z,80.98
2018-10-02T21:11:38.912Z,80.54
2018-10-02T21:14:08.620Z,80.64
2018-10-02T21:16:38.306Z,80.37
2018-10-02T21:19:07.996Z,80.10
2018-10-02T21:21:37.740Z,79.80
2018-10-02T21:24:07.410Z,80.30
2018-10-02T21:26:37.108Z,79.94
2018-10-02T21:29:06.773Z,80.40
2018-10-02T21:31:36.479Z,79.93
2018-10-02T21:34:06.189Z,80.68
2018-10-02T21:36:35.904Z,80.39
2018-10-02T21:39:08.044Z,80.81
2018-10-02T21:41:37.733Z,80.28
2018-10-02T21:44:07.420Z,80.30
2018-10-02T21:46:37.149Z,79.57
2018-10-02T21:49:07.012Z,79.21
2018-10-02T21:51:36.696Z,80.17
2018-10-02T21:54:06.387Z,79.21
2018-10-02T21:56:36.121Z,79.27
2018-10-02T21:59:05.849Z,79.04
2018-10-02T22:01:35.536Z,79.32
2018-10-02T22:04:05.235Z,79.31
2018-10-02T22:06:34.932Z,79.75
2018-10-02T22:09:05.665Z,80.46
2018-10-02T22:11:35.345Z,80.91
2018-10-02T22:14:05.004Z,81.10
2018-10-02T22:16:34.698Z,81.29
2018-10-02T22:19:04.389Z,80.65
2018-10-02T22:21:34.068Z,80.22
2018-10-02T22:24:03.828Z,80.55
2018-10-02T22:26:33.483Z,79.00
2018-10-02T22:29:03.242Z,79.05
2018-10-02T22:31:32.916Z,78.46
2018-10-02T22:34:02.565Z,77.95
2018-10-02T22:36:32.240Z,77.39
2018-10-02T22:39:01.891Z,78.16
2018-10-02T22:41:31.604Z,77.30
2018-10-02T22:44:01.276Z,78.11
2018-10-02T22:46:30.993Z,77.75
2018-10-02T22:49:00.738Z,77.90
2018-10-02T22:51:30.509Z,77.28
2018-10-02T22:54:00.248Z,77.15
2018-10-02T22:56:29.912Z,78.04
2018-10-02T22:58:59.610Z,77.67
2018-10-02T23:01:29.317Z,77.47
2018-10-02T23:03:59.032Z,77.53
2018-10-02T23:06:28.680Z,76.98
2018-10-02T23:08:58.379Z,76.69
2018-10-02T23:11:28.068Z,76.42
2018-10-02T23:13:57.752Z,76.89
2018-10-02T23:16:27.441Z,77.26
2018-10-02T23:18:57.125Z,76.54
2018-10-02T23:21:26.825Z,76.96
2018-10-02T23:23:56.488Z,76.73
2018-10-02T23:26:26.147Z,77.21
2018-10-02T23:28:55.844Z,76.58
2018-10-02T23:31:25.502Z,76.91
2018-10-02T23:33:55.196Z,77.34
2018-10-02T23:36:24.841Z,77.37
2018-10-02T23:38:54.504Z,77.23
2018-10-02T23:41:24.156Z,77.41
2018-10-02T23:43:53.836Z,77.48
2018-10-02T23:46:23.500Z,77.03
2018-10-02T23:48:53.184Z,77.04
2018-10-02T23:51:22.876Z,77.50
2018-10-02T23:53:52.589Z,77.07
2018-10-02T23:56:22.224Z,76.93
2018-10-02T23:58:51.937Z,77.04
